This is the latest recevied weather packets stored in our database for station/object KO4ILY. If no packets are shown the sender has not sent any weather packets the latest 10 day(s).
| Time | Temp. | Humidity | Pressure | Rain* | Wind** | Luminosity | Snow |
|---|---|---|---|---|---|---|---|
| 1777147205 | 22.78° C | 74% | 1008.5 hPa | 0 mm | - | - | - |
| 1777143606 | 22.78° C | 76% | 1009.2 hPa | 0 mm | - | - | - |
| 1777140006 | 20.56° C | 85% | 1010.1 hPa | 0.25 mm | - | - | - |
| 1777136405 | 21.67° C | 77% | 1010.4 hPa | 0 mm | - | - | - |
| 1777132805 | 20° C | 84% | 1010.6 hPa | 0 mm | - | - | - |
| 1777129206 | 18.89° C | 90% | 1010.4 hPa | 0 mm | - | - | - |
| 1777125605 | 17.78° C | 93% | 1010.5 hPa | 0 mm | - | - | - |
| 1777122006 | 16.67° C | 96% | 1010.8 hPa | 0 mm | - | - | - |
| 1777118406 | 16.67° C | 95% | 1010.5 hPa | 0 mm | - | - | - |
| 1777114805 | 16.67° C | 95% | 1010.2 hPa | 0.25 mm | - | - | - |
| 1777111206 | 16.67° C | 94% | 1009.9 hPa | 0 mm | - | - | - |
| 1777107606 | 16.67° C | 94% | 1009.8 hPa | 0 mm | - | - | - |
| 1777104005 | 16.67° C | 92% | 1010.1 hPa | 0 mm | - | - | - |
| 1777100406 | 16.67° C | 90% | 1010.7 hPa | 0 mm | - | - | - |
| 1777096805 | 18.33° C | 77% | 1011 hPa | 0 mm | - | - | - |
| 1777093206 | 18.89° C | 71% | 1010.7 hPa | 0 mm | - | - | - |
| 1777089606 | 19.44° C | 72% | 1010.5 hPa | 0 mm | - | - | - |
| 1777086005 | 19.44° C | 69% | 1010.4 hPa | 0 mm | - | - | - |
| 1777082406 | 20° C | 67% | 1010.1 hPa | 0 mm | - | - | - |
| 1777078806 | 21.67° C | 66% | 1009.9 hPa | 0 mm | - | - | - |
| 1777075205 | 23.89° C | 56% | 1009.9 hPa | 0 mm | - | - | - |
| 1777071606 | 25° C | 56% | 1009.9 hPa | 0 mm | - | - | - |
| 1777068006 | 26.11° C | 51% | 1009.6 hPa | 0 mm | - | - | - |
| 1777064405 | 26.67° C | 49% | 1009.7 hPa | 0 mm | - | - | - |
| 1777060806 | 26.67° C | 48% | 1010.3 hPa | 0 mm | - | - | - |
* Rain latest hour (hover to see other rain measurements)
** Current wind speed in m/s (hover to see current wind gust speed)